createdAt,value
2022-08-20T00:01:01.819Z,19.75
2022-08-20T00:03:32.587Z,19.75
2022-08-20T00:06:02.140Z,19.84
2022-08-20T00:08:32.217Z,19.98
2022-08-20T00:11:02.312Z,19.85
2022-08-20T00:13:32.734Z,19.87
2022-08-20T00:16:00.679Z,19.97
2022-08-20T00:18:28.575Z,20.11
2022-08-20T00:20:57.068Z,20.15
2022-08-20T00:23:25.985Z,20.15
2022-08-20T00:25:55.238Z,20.07
2022-08-20T00:28:23.154Z,20.10
2022-08-20T00:30:51.201Z,20.26
2022-08-20T00:33:21.338Z,20.26
2022-08-20T00:35:51.786Z,20.18
2022-08-20T00:38:20.186Z,20.15
2022-08-20T00:40:51.452Z,20.10
2022-08-20T00:43:31.550Z,20.04
2022-08-20T00:46:01.398Z,20.08
2022-08-20T00:48:31.864Z,20.03
2022-08-20T00:51:05.599Z,20.08
2022-08-20T00:53:37.587Z,20.20
2022-08-20T00:56:07.156Z,20.24
2022-08-20T00:58:37.944Z,20.29
2022-08-20T01:01:07.278Z,20.26
2022-08-20T01:03:35.660Z,20.35
2022-08-20T01:06:03.999Z,20.39
2022-08-20T01:08:32.055Z,20.24
2022-08-20T01:11:12.332Z,20.22
2022-08-20T01:13:42.505Z,20.12
2022-08-20T01:16:18.443Z,20.17
2022-08-20T01:18:48.217Z,20.22
2022-08-20T01:21:19.164Z,20.20
2022-08-20T01:23:51.849Z,20.22
2022-08-20T01:26:26.070Z,20.28
2022-08-20T01:28:57.278Z,20.15
2022-08-20T01:31:27.912Z,20.12
2022-08-20T01:33:58.197Z,20.10
2022-08-20T01:36:30.325Z,20.11
2022-08-20T01:38:58.738Z,20.08
2022-08-20T01:41:43.782Z,19.88
2022-08-20T01:44:16.703Z,19.88
2022-08-20T01:46:46.698Z,19.75
2022-08-20T01:49:23.141Z,19.74
2022-08-20T01:51:53.265Z,19.80
2022-08-20T01:54:22.034Z,19.75
2022-08-20T01:56:57.999Z,19.80
2022-08-20T01:59:26.361Z,19.81
2022-08-20T02:01:55.556Z,19.83
2022-08-20T02:04:23.811Z,19.93
2022-08-20T02:06:56.555Z,19.85
2022-08-20T02:09:26.067Z,19.87
2022-08-20T02:11:55.820Z,19.94
2022-08-20T02:14:23.824Z,19.90
2022-08-20T02:16:55.246Z,19.93
2022-08-20T02:19:26.687Z,19.87
2022-08-20T02:21:59.004Z,19.75
2022-08-20T02:24:27.225Z,19.73
2022-08-20T02:26:56.662Z,19.75
2022-08-20T02:29:26.088Z,19.75
2022-08-20T02:32:32.340Z,19.80
2022-08-20T02:34:42.792Z,19.85
2022-08-20T02:37:11.660Z,19.87
2022-08-20T02:39:39.535Z,19.98
2022-08-20T02:42:09.342Z,19.93
2022-08-20T02:44:37.192Z,19.85
2022-08-20T02:47:05.608Z,19.88
2022-08-20T02:49:35.410Z,19.83
2022-08-20T02:52:03.599Z,19.85
2022-08-20T02:54:31.578Z,19.74
2022-08-20T02:56:59.403Z,19.66
2022-08-20T02:59:28.693Z,19.73
2022-08-20T03:01:59.527Z,19.85
2022-08-20T03:04:28.976Z,19.77
2022-08-20T03:06:56.882Z,19.74
2022-08-20T03:09:24.756Z,19.63
2022-08-20T03:11:52.841Z,19.50
2022-08-20T03:14:20.895Z,19.42
2022-08-20T03:16:50.177Z,19.39
2022-08-20T03:19:18.078Z,19.32
2022-08-20T03:21:46.034Z,19.12
2022-08-20T03:24:13.982Z,19.12
2022-08-20T03:26:41.808Z,19.18
2022-08-20T03:29:10.108Z,19.19
2022-08-20T03:31:38.153Z,19.30
2022-08-20T03:34:07.370Z,19.29
2022-08-20T03:36:35.186Z,19.15
2022-08-20T03:39:06.474Z,18.88
2022-08-20T03:41:34.291Z,18.79
2022-08-20T03:44:02.105Z,18.64
2022-08-20T03:46:30.096Z,18.62
2022-08-20T03:49:00.548Z,18.68
2022-08-20T03:51:31.296Z,18.61
2022-08-20T03:53:59.864Z,18.41
2022-08-20T03:56:28.350Z,18.33
2022-08-20T03:58:56.608Z,18.34
2022-08-20T04:01:45.777Z,18.33
2022-08-20T04:04:12.867Z,18.24
2022-08-20T04:06:42.691Z,18.72
2022-08-20T04:09:11.883Z,18.91
2022-08-20T04:11:40.308Z,19.09
2022-08-20T04:14:09.306Z,18.99
2022-08-20T04:16:40.356Z,18.33
2022-08-20T04:19:08.412Z,18.09
2022-08-20T04:21:37.348Z,18.20
2022-08-20T04:24:07.528Z,18.29
2022-08-20T04:26:50.513Z,18.30
2022-08-20T04:29:19.300Z,18.36
2022-08-20T04:31:47.308Z,18.50
2022-08-20T04:34:19.061Z,18.51
2022-08-20T04:36:48.021Z,18.52
2022-08-20T04:39:17.352Z,18.21
2022-08-20T04:41:45.651Z,18.18
2022-08-20T04:44:13.743Z,18.21
2022-08-20T04:46:42.039Z,18.06
2022-08-20T04:49:09.947Z,18.07
2022-08-20T04:51:37.779Z,18.11
2022-08-20T04:54:05.706Z,18.07
2022-08-20T04:56:39.614Z,17.94
2022-08-20T04:59:08.305Z,18.06
2022-08-20T05:01:36.331Z,17.97
2022-08-20T05:04:04.926Z,17.87
2022-08-20T05:06:33.065Z,17.96
2022-08-20T05:09:02.065Z,18.07
2022-08-20T05:11:35.407Z,17.78
2022-08-20T05:14:08.522Z,17.93
2022-08-20T05:16:39.026Z,17.94
2022-08-20T05:19:08.507Z,17.92
2022-08-20T05:21:36.875Z,18.00
2022-08-20T05:24:05.560Z,18.00
2022-08-20T05:26:34.279Z,18.01
2022-08-20T05:29:04.712Z,18.17
2022-08-20T05:31:37.496Z,18.18
2022-08-20T05:34:09.583Z,18.34
2022-08-20T05:36:39.703Z,18.54
2022-08-20T05:39:08.743Z,18.54
2022-08-20T05:41:36.718Z,18.73
2022-08-20T05:44:04.992Z,18.89
2022-08-20T05:46:34.404Z,18.78
2022-08-20T05:49:02.337Z,18.94
2022-08-20T05:51:30.959Z,18.78
2022-08-20T05:53:59.384Z,18.71
2022-08-20T05:56:30.694Z,18.55
2022-08-20T05:59:00.255Z,18.40
2022-08-20T06:01:28.209Z,18.34
2022-08-20T06:04:14.687Z,18.52
2022-08-20T06:06:46.161Z,18.38
2022-08-20T06:09:15.680Z,18.30
2022-08-20T06:11:43.638Z,18.26
2022-08-20T06:14:11.567Z,18.20
2022-08-20T06:16:39.496Z,18.29
2022-08-20T06:19:26.338Z,18.24
2022-08-20T06:21:56.408Z,18.18
2022-08-20T06:24:24.895Z,18.37
2022-08-20T06:26:56.830Z,18.61
2022-08-20T06:29:24.683Z,18.69
2022-08-20T06:31:52.817Z,18.81
2022-08-20T06:34:20.675Z,18.99
2022-08-20T06:36:49.924Z,18.89
2022-08-20T06:39:17.973Z,18.65
2022-08-20T06:41:45.855Z,18.48
2022-08-20T06:44:14.278Z,18.72
2022-08-20T06:46:43.342Z,18.78
2022-08-20T06:49:11.160Z,18.99
2022-08-20T06:51:41.298Z,18.79
2022-08-20T06:54:10.846Z,18.60
2022-08-20T06:56:38.760Z,18.68
2022-08-20T06:59:06.607Z,18.68
2022-08-20T07:01:35.518Z,18.72
2022-08-20T07:04:03.913Z,18.78
2022-08-20T07:06:31.799Z,18.81
2022-08-20T07:08:59.722Z,18.82
2022-08-20T07:11:29.173Z,18.65
2022-08-20T07:13:58.202Z,18.61
2022-08-20T07:16:27.142Z,18.73
2022-08-20T07:18:54.940Z,18.68
2022-08-20T07:21:22.856Z,18.54
2022-08-20T07:23:50.706Z,18.48
2022-08-20T07:26:18.646Z,18.62
2022-08-20T07:28:47.892Z,18.76
2022-08-20T07:31:34.908Z,18.73
2022-08-20T07:34:03.381Z,18.78
2022-08-20T07:36:31.536Z,18.92
2022-08-20T07:39:06.093Z,18.85
2022-08-20T07:41:34.877Z,18.79
2022-08-20T07:44:04.646Z,18.75
2022-08-20T07:46:33.135Z,18.71
2022-08-20T07:49:01.074Z,18.43
2022-08-20T07:51:29.531Z,18.57
2022-08-20T07:53:58.321Z,18.30
2022-08-20T07:56:26.574Z,18.29
2022-08-20T07:58:59.169Z,18.47
2022-08-20T08:01:30.610Z,18.34
2022-08-20T08:03:59.042Z,18.36
2022-08-20T08:06:31.013Z,18.52
2022-08-20T08:09:03.887Z,18.71
2022-08-20T08:11:34.512Z,18.64
2022-08-20T08:14:02.965Z,18.52
2022-08-20T08:16:32.502Z,18.57
2022-08-20T08:19:01.974Z,18.69
2022-08-20T08:21:31.190Z,18.60
2022-08-20T08:23:58.913Z,18.52
2022-08-20T08:26:28.837Z,18.50
2022-08-20T08:28:58.079Z,18.30
2022-08-20T08:31:26.224Z,18.38
2022-08-20T08:33:55.588Z,18.37
2022-08-20T08:36:24.684Z,18.31
2022-08-20T08:38:52.400Z,18.58
2022-08-20T08:41:25.496Z,18.75
2022-08-20T08:43:55.732Z,19.09
2022-08-20T08:46:27.314Z,19.83
2022-08-20T08:49:01.534Z,20.55
2022-08-20T08:51:33.888Z,20.82
2022-08-20T08:54:06.489Z,21.65
2022-08-20T08:56:35.791Z,21.62
2022-08-20T08:59:07.707Z,22.09
2022-08-20T09:01:54.243Z,22.73
2022-08-20T09:04:31.615Z,22.56
2022-08-20T09:07:01.017Z,23.25
2022-08-20T09:09:32.426Z,22.94
2022-08-20T09:12:06.913Z,22.73
2022-08-20T09:14:34.982Z,22.16
2022-08-20T09:17:03.461Z,21.86
2022-08-20T09:19:32.917Z,21.82
2022-08-20T09:22:00.821Z,22.06
2022-08-20T09:24:28.618Z,22.40
2022-08-20T09:26:56.482Z,22.36
2022-08-20T09:29:24.392Z,21.78
2022-08-20T09:31:52.207Z,21.38
2022-08-20T09:34:20.430Z,21.33
2022-08-20T09:36:49.581Z,21.17
2022-08-20T09:39:17.656Z,21.40
2022-08-20T09:41:45.534Z,21.44
2022-08-20T09:44:13.347Z,21.33
2022-08-20T09:46:41.199Z,21.04
2022-08-20T09:49:09.456Z,20.99
2022-08-20T09:51:38.917Z,21.38
2022-08-20T09:54:08.361Z,21.67
2022-08-20T09:56:36.791Z,22.57
2022-08-20T09:59:04.847Z,22.67
2022-08-20T10:01:34.193Z,22.15
2022-08-20T10:04:02.144Z,22.04
2022-08-20T10:06:32.511Z,22.66
2022-08-20T10:09:04.586Z,22.50
2022-08-20T10:11:33.900Z,22.94
2022-08-20T10:14:01.739Z,23.63
2022-08-20T10:16:29.570Z,23.07
2022-08-20T10:18:57.700Z,24.56
2022-08-20T10:21:25.573Z,24.50
2022-08-20T10:23:53.357Z,23.96
2022-08-20T10:26:21.304Z,24.07
2022-08-20T10:28:50.678Z,23.48
2022-08-20T10:31:18.599Z,24.79
2022-08-20T10:33:46.504Z,25.91
2022-08-20T10:36:16.798Z,26.76
2022-08-20T10:38:45.149Z,26.59
2022-08-20T10:41:13.047Z,26.35
2022-08-20T10:43:40.960Z,26.35
2022-08-20T10:46:10.630Z,27.22
2022-08-20T10:48:38.995Z,27.10
2022-08-20T10:51:07.237Z,25.81
2022-08-20T10:53:36.043Z,27.06
2022-08-20T10:56:04.155Z,27.61
2022-08-20T10:58:37.644Z,28.21
2022-08-20T11:01:08.053Z,28.32
2022-08-20T11:03:37.323Z,28.00
2022-08-20T11:06:05.704Z,28.08
2022-08-20T11:08:36.137Z,28.48
2022-08-20T11:11:05.498Z,28.96
2022-08-20T11:13:33.634Z,28.94
2022-08-20T11:16:02.686Z,29.62
2022-08-20T11:18:31.412Z,29.85
2022-08-20T11:21:01.379Z,28.79
2022-08-20T11:23:29.283Z,29.51
2022-08-20T11:25:59.191Z,29.90
2022-08-20T11:28:31.973Z,30.03
2022-08-20T11:31:01.406Z,29.51
2022-08-20T11:33:29.503Z,30.06
2022-08-20T11:35:57.624Z,27.60
2022-08-20T11:38:27.170Z,28.25
2022-08-20T11:40:55.081Z,27.62
2022-08-20T11:43:22.968Z,27.97
2022-08-20T11:45:53.599Z,27.14
2022-08-20T11:48:22.359Z,27.98
2022-08-20T11:50:50.583Z,29.01
2022-08-20T11:53:18.469Z,27.71
2022-08-20T11:55:48.849Z,27.24
2022-08-20T11:58:16.895Z,27.03
2022-08-20T12:00:44.868Z,28.25
2022-08-20T12:03:12.781Z,28.16
2022-08-20T12:05:42.463Z,27.81
2022-08-20T12:08:27.727Z,28.08
2022-08-20T12:11:00.367Z,28.72
2022-08-20T12:13:47.568Z,29.04
2022-08-20T12:16:17.268Z,29.28
2022-08-20T12:18:45.242Z,28.19
2022-08-20T12:21:13.503Z,27.77
2022-08-20T12:23:41.544Z,27.55
2022-08-20T12:26:10.790Z,27.88
2022-08-20T12:28:38.687Z,28.83
2022-08-20T12:31:06.884Z,29.18
2022-08-20T12:33:34.816Z,29.88
2022-08-20T12:36:02.760Z,29.64
2022-08-20T12:38:30.639Z,29.62
2022-08-20T12:40:58.451Z,30.23
2022-08-20T12:43:27.755Z,30.30
2022-08-20T12:45:55.602Z,29.34
2022-08-20T12:48:23.442Z,30.06
2022-08-20T12:50:52.740Z,29.48
2022-08-20T12:53:20.701Z,28.79
2022-08-20T12:55:48.610Z,29.34
2022-08-20T12:58:16.430Z,29.07
2022-08-20T13:00:48.629Z,28.63
2022-08-20T13:03:20.338Z,27.22
2022-08-20T13:05:48.887Z,26.86
2022-08-20T13:08:19.057Z,26.92
2022-08-20T13:10:47.266Z,27.13
2022-08-20T13:13:20.121Z,27.06
2022-08-20T13:15:51.444Z,27.34
2022-08-20T13:18:20.121Z,27.10
2022-08-20T13:20:48.563Z,27.09
2022-08-20T13:23:16.543Z,27.00
2022-08-20T13:25:44.523Z,26.88
2022-08-20T13:28:12.412Z,26.98
2022-08-20T13:30:41.361Z,27.33
2022-08-20T13:33:10.849Z,27.06
2022-08-20T13:35:38.791Z,27.27
2022-08-20T13:38:06.590Z,27.23
2022-08-20T13:40:34.545Z,26.24
2022-08-20T13:43:06.720Z,26.35
2022-08-20T13:45:35.356Z,26.41
2022-08-20T13:48:03.651Z,26.45
2022-08-20T13:50:33.624Z,26.51
2022-08-20T13:53:01.528Z,26.47
2022-08-20T13:55:30.659Z,26.11
2022-08-20T13:57:58.656Z,26.16
2022-08-20T14:00:31.929Z,26.28
2022-08-20T14:03:00.773Z,26.05
2022-08-20T14:05:29.003Z,25.94
2022-08-20T14:08:06.488Z,25.59
2022-08-20T14:10:34.741Z,25.42
2022-08-20T14:13:03.664Z,25.62
2022-08-20T14:15:32.596Z,25.59
2022-08-20T14:18:00.280Z,25.43
2022-08-20T14:20:32.044Z,25.43
2022-08-20T14:23:02.291Z,25.40
2022-08-20T14:25:31.436Z,25.39
2022-08-20T14:27:59.179Z,25.09
2022-08-20T14:30:29.291Z,24.88
2022-08-20T14:32:57.483Z,24.92
2022-08-20T14:35:25.484Z,25.02
2022-08-20T14:37:56.505Z,25.09
2022-08-20T14:40:27.915Z,25.05
2022-08-20T14:42:56.787Z,24.88
2022-08-20T14:45:25.171Z,24.95
2022-08-20T14:47:55.227Z,24.98
2022-08-20T14:50:26.019Z,24.81
2022-08-20T14:52:54.391Z,24.92
2022-08-20T14:55:24.289Z,24.84
2022-08-20T14:57:54.534Z,24.88
2022-08-20T15:00:24.571Z,24.88
2022-08-20T15:02:52.874Z,24.85
2022-08-20T15:05:20.945Z,24.77
2022-08-20T15:07:51.788Z,24.84
2022-08-20T15:10:23.883Z,24.88
2022-08-20T15:12:53.163Z,24.85
2022-08-20T15:15:22.074Z,24.85
2022-08-20T15:17:50.910Z,24.91
2022-08-20T15:20:20.613Z,24.87
2022-08-20T15:22:49.723Z,24.79
2022-08-20T15:25:20.444Z,24.75
2022-08-20T15:27:48.730Z,24.78
2022-08-20T15:30:19.773Z,24.79
2022-08-20T15:32:52.760Z,24.84
2022-08-20T15:35:23.322Z,24.85
2022-08-20T15:37:51.664Z,24.88
2022-08-20T15:40:28.859Z,24.85
2022-08-20T15:42:57.641Z,24.84
2022-08-20T15:45:27.038Z,24.84
2022-08-20T15:48:02.329Z,24.71
2022-08-20T15:50:51.154Z,24.69
2022-08-20T15:53:22.947Z,24.65
2022-08-20T15:56:04.544Z,24.58
2022-08-20T15:58:39.500Z,24.60
2022-08-20T16:01:25.320Z,24.60
2022-08-20T16:04:12.087Z,24.61
2022-08-20T16:06:41.799Z,24.58
2022-08-20T16:09:30.952Z,24.56
2022-08-20T16:12:06.318Z,24.53
2022-08-20T16:14:38.986Z,24.51
2022-08-20T16:17:11.022Z,24.57
2022-08-20T16:19:49.328Z,24.47
2022-08-20T16:22:19.495Z,24.43
2022-08-20T16:24:48.163Z,24.34
2022-08-20T16:27:25.863Z,24.27
2022-08-20T16:30:00.916Z,24.20
2022-08-20T16:32:38.728Z,24.07
2022-08-20T16:35:29.060Z,24.03
2022-08-20T16:38:03.307Z,23.97
2022-08-20T16:40:35.478Z,23.97
2022-08-20T16:43:08.452Z,23.92
2022-08-20T16:45:43.987Z,23.85
2022-08-20T16:48:20.625Z,23.85
2022-08-20T16:50:57.063Z,23.79
2022-08-20T16:53:26.913Z,23.76
2022-08-20T16:55:55.883Z,23.80
2022-08-20T16:58:23.614Z,23.76
2022-08-20T17:01:06.422Z,23.72
2022-08-20T17:03:39.915Z,23.59
2022-08-20T17:06:18.086Z,23.52
2022-08-20T17:08:49.894Z,23.49
2022-08-20T17:11:25.256Z,23.45
2022-08-20T17:14:05.315Z,23.34
2022-08-20T17:16:35.374Z,23.28
2022-08-20T17:19:19.573Z,23.22
2022-08-20T17:21:50.351Z,23.19
2022-08-20T17:24:25.328Z,23.12
2022-08-20T17:26:59.596Z,23.07
2022-08-20T17:29:30.221Z,22.94
2022-08-20T17:32:00.197Z,22.91
2022-08-20T17:34:31.714Z,22.87
2022-08-20T17:37:03.772Z,22.81
2022-08-20T17:39:32.547Z,22.78
2022-08-20T17:42:06.707Z,22.70
2022-08-20T17:44:38.402Z,22.61
2022-08-20T17:47:12.793Z,22.59
2022-08-20T17:50:01.204Z,22.56
2022-08-20T17:52:37.668Z,22.47
2022-08-20T17:55:07.164Z,22.43
2022-08-20T17:57:40.572Z,22.37
2022-08-20T18:00:14.322Z,22.30
2022-08-20T18:02:42.533Z,22.29
2022-08-20T18:05:17.092Z,22.23
2022-08-20T18:07:59.734Z,22.16
2022-08-20T18:10:28.565Z,22.09
2022-08-20T18:13:06.053Z,22.05
2022-08-20T18:15:38.772Z,21.94
2022-08-20T18:18:17.943Z,21.94
2022-08-20T18:21:16.505Z,21.81
2022-08-20T18:23:48.134Z,21.69
2022-08-20T18:26:22.267Z,21.64
2022-08-20T18:28:55.091Z,21.54
2022-08-20T18:31:28.342Z,21.40
2022-08-20T18:33:56.746Z,21.30
2022-08-20T18:36:29.616Z,21.19
2022-08-20T18:39:02.665Z,21.13
2022-08-20T18:41:33.563Z,21.03
2022-08-20T18:44:08.372Z,20.99
2022-08-20T18:46:38.098Z,20.86
2022-08-20T18:49:08.746Z,20.65
2022-08-20T18:51:42.180Z,20.56
2022-08-20T18:54:22.121Z,20.44
2022-08-20T18:56:49.972Z,20.36
2022-08-20T18:59:20.908Z,20.15
2022-08-20T19:01:50.368Z,20.12
2022-08-20T19:04:24.516Z,20.11
2022-08-20T19:06:58.159Z,19.90
2022-08-20T19:09:52.249Z,19.87
2022-08-20T19:12:34.382Z,19.84
2022-08-20T19:15:07.216Z,19.85
2022-08-20T19:17:45.905Z,19.84
2022-08-20T19:20:17.000Z,19.77
2022-08-20T19:22:47.649Z,19.63
2022-08-20T19:25:24.806Z,19.57
2022-08-20T19:27:52.991Z,19.52
2022-08-20T19:30:34.452Z,19.56
2022-08-20T19:33:03.117Z,19.63
2022-08-20T19:35:31.291Z,19.45
2022-08-20T19:38:02.255Z,19.26
2022-08-20T19:40:33.268Z,19.29
2022-08-20T19:43:13.044Z,19.09
2022-08-20T19:45:44.973Z,19.01
2022-08-20T19:48:27.576Z,18.96
2022-08-20T19:51:03.951Z,18.96
2022-08-20T19:53:36.368Z,19.01
2022-08-20T19:56:07.339Z,18.92
2022-08-20T19:58:35.620Z,18.91
2022-08-20T20:01:05.237Z,19.05
2022-08-20T20:03:37.655Z,18.82
2022-08-20T20:06:17.282Z,18.81
2022-08-20T20:08:53.290Z,18.81
2022-08-20T20:11:24.721Z,18.69
2022-08-20T20:13:52.769Z,18.58
2022-08-20T20:16:22.314Z,18.47
2022-08-20T20:19:09.093Z,18.38
2022-08-20T20:21:41.261Z,18.34
2022-08-20T20:24:11.674Z,18.43
2022-08-20T20:26:42.055Z,18.61
2022-08-20T20:29:12.080Z,18.72
2022-08-20T20:31:48.555Z,18.52
2022-08-20T20:34:19.483Z,18.44
2022-08-20T20:36:49.278Z,18.51
2022-08-20T20:39:30.551Z,18.54
2022-08-20T20:42:01.995Z,18.65
2022-08-20T20:44:37.301Z,18.72
2022-08-20T20:47:08.561Z,18.78
2022-08-20T20:49:49.752Z,18.87
2022-08-20T20:52:24.738Z,18.62
2022-08-20T20:55:06.978Z,18.33
2022-08-20T20:57:38.574Z,18.09
2022-08-20T21:00:10.101Z,17.99
2022-08-20T21:02:38.527Z,17.82
2022-08-20T21:05:06.828Z,17.79
2022-08-20T21:07:34.761Z,17.68
2022-08-20T21:10:04.889Z,17.68
2022-08-20T21:12:32.735Z,17.56
2022-08-20T21:15:00.678Z,17.46
2022-08-20T21:17:28.547Z,17.35
2022-08-20T21:19:56.399Z,17.34
2022-08-20T21:22:24.246Z,17.22
2022-08-20T21:24:52.093Z,17.15
2022-08-20T21:27:25.545Z,17.15
2022-08-20T21:29:54.456Z,17.14
2022-08-20T21:32:22.977Z,17.15
2022-08-20T21:34:51.691Z,17.03
2022-08-20T21:37:19.608Z,16.88
2022-08-20T21:39:47.550Z,16.81
2022-08-20T21:42:29.447Z,16.71
2022-08-20T21:44:59.423Z,16.61
2022-08-20T21:47:27.592Z,16.67
2022-08-20T21:49:56.099Z,16.61
2022-08-20T21:52:24.185Z,16.50
2022-08-20T21:54:53.212Z,16.38
2022-08-20T21:57:24.595Z,16.30
2022-08-20T21:59:53.042Z,16.26
2022-08-20T22:02:25.089Z,16.25
2022-08-20T22:04:53.858Z,16.15
2022-08-20T22:07:22.879Z,16.02
2022-08-20T22:09:50.844Z,15.88
2022-08-20T22:12:21.799Z,15.75
2022-08-20T22:14:49.778Z,15.69
2022-08-20T22:17:17.816Z,15.64
2022-08-20T22:19:46.969Z,15.58
2022-08-20T22:22:15.625Z,15.50
2022-08-20T22:24:43.473Z,15.46
2022-08-20T22:27:11.351Z,15.41
2022-08-20T22:29:39.230Z,15.36
2022-08-20T22:32:07.435Z,15.37
2022-08-20T22:34:36.837Z,15.43
2022-08-20T22:37:06.738Z,15.53
2022-08-20T22:39:34.761Z,15.57
2022-08-20T22:42:02.777Z,15.50
2022-08-20T22:44:30.806Z,15.48
2022-08-20T22:47:03.451Z,15.44
2022-08-20T22:49:34.226Z,15.34
2022-08-20T22:52:02.264Z,15.30
2022-08-20T22:54:31.682Z,15.20
2022-08-20T22:56:59.583Z,15.11
2022-08-20T22:59:27.473Z,15.04
2022-08-20T23:01:55.969Z,15.00
2022-08-20T23:04:27.646Z,14.96
2022-08-20T23:06:56.650Z,14.87
2022-08-20T23:09:25.224Z,14.79
2022-08-20T23:11:54.598Z,14.76
2022-08-20T23:14:23.197Z,14.72
2022-08-20T23:17:00.157Z,14.75
2022-08-20T23:19:28.234Z,14.73
2022-08-20T23:21:56.050Z,14.87
2022-08-20T23:24:24.099Z,14.95
2022-08-20T23:26:52.953Z,14.86
2022-08-20T23:29:25.580Z,14.75
2022-08-20T23:31:55.073Z,14.66
2022-08-20T23:34:23.020Z,14.62
2022-08-20T23:36:52.348Z,14.65
2022-08-20T23:39:20.838Z,14.68
2022-08-20T23:41:48.881Z,14.69
2022-08-20T23:44:25.089Z,14.68
2022-08-20T23:46:57.556Z,14.75
2022-08-20T23:49:25.752Z,14.71
2022-08-20T23:51:53.603Z,14.64
2022-08-20T23:54:21.555Z,14.61
2022-08-20T23:56:49.459Z,14.64
2022-08-20T23:59:17.589Z,14.49
